sensor_id;sensor_type;location;lat;lon;timestamp;P1;durP1;ratioP1;P2;durP2;ratioP2
51578;SDS011;47998;53.242;6.386;2023-08-07T00:00:46;3.50;;;2.13;;
51578;SDS011;47998;53.242;6.386;2023-08-07T00:03:12;6.05;;;2.70;;
51578;SDS011;47998;53.242;6.386;2023-08-07T00:05:44;5.90;;;2.60;;
51578;SDS011;47998;53.242;6.386;2023-08-07T00:08:12;4.40;;;2.38;;
51578;SDS011;47998;53.242;6.386;2023-08-07T00:10:38;3.97;;;2.60;;
51578;SDS011;47998;53.242;6.386;2023-08-07T00:13:05;5.45;;;2.85;;
51578;SDS011;47998;53.242;6.386;2023-08-07T00:15:31;4.63;;;2.85;;
51578;SDS011;47998;53.242;6.386;2023-08-07T00:17:58;9.13;;;3.22;;
51578;SDS011;47998;53.242;6.386;2023-08-07T00:20:24;4.80;;;3.13;;
51578;SDS011;47998;53.242;6.386;2023-08-07T00:22:50;6.00;;;2.90;;
51578;SDS011;47998;53.242;6.386;2023-08-07T00:25:19;11.00;;;3.53;;
51578;SDS011;47998;53.242;6.386;2023-08-07T00:27:45;9.88;;;3.90;;
51578;SDS011;47998;53.242;6.386;2023-08-07T00:30:10;14.45;;;3.45;;
51578;SDS011;47998;53.242;6.386;2023-08-07T00:32:39;6.25;;;3.78;;
51578;SDS011;47998;53.242;6.386;2023-08-07T00:35:07;3.58;;;2.70;;
51578;SDS011;47998;53.242;6.386;2023-08-07T00:37:33;4.78;;;2.75;;
51578;SDS011;47998;53.242;6.386;2023-08-07T00:39:59;4.82;;;2.60;;
51578;SDS011;47998;53.242;6.386;2023-08-07T00:42:24;5.28;;;2.45;;
51578;SDS011;47998;53.242;6.386;2023-08-07T00:44:50;4.40;;;2.00;;
51578;SDS011;47998;53.242;6.386;2023-08-07T00:47:16;5.68;;;2.80;;
51578;SDS011;47998;53.242;6.386;2023-08-07T00:49:42;6.55;;;2.38;;
51578;SDS011;47998;53.242;6.386;2023-08-07T00:52:08;7.03;;;2.72;;
51578;SDS011;47998;53.242;6.386;2023-08-07T00:54:34;8.20;;;2.88;;
51578;SDS011;47998;53.242;6.386;2023-08-07T00:57:05;5.28;;;2.92;;
51578;SDS011;47998;53.242;6.386;2023-08-07T00:59:35;4.43;;;2.78;;
51578;SDS011;47998;53.242;6.386;2023-08-07T01:02:01;3.65;;;2.80;;
51578;SDS011;47998;53.242;6.386;2023-08-07T01:04:27;7.70;;;3.03;;
51578;SDS011;47998;53.242;6.386;2023-08-07T01:06:53;4.38;;;3.22;;
51578;SDS011;47998;53.242;6.386;2023-08-07T01:09:19;5.32;;;2.92;;
51578;SDS011;47998;53.242;6.386;2023-08-07T01:11:49;7.88;;;3.97;;
51578;SDS011;47998;53.242;6.386;2023-08-07T01:14:24;6.38;;;3.45;;
51578;SDS011;47998;53.242;6.386;2023-08-07T01:17:00;6.30;;;3.83;;
51578;SDS011;47998;53.242;6.386;2023-08-07T01:19:28;6.22;;;3.78;;
51578;SDS011;47998;53.242;6.386;2023-08-07T01:24:32;12.43;;;4.97;;
51578;SDS011;47998;53.242;6.386;2023-08-07T01:27:00;12.98;;;4.28;;
51578;SDS011;47998;53.242;6.386;2023-08-07T01:32:51;8.00;;;4.38;;
51578;SDS011;47998;53.242;6.386;2023-08-07T01:35:35;10.90;;;5.05;;
51578;SDS011;47998;53.242;6.386;2023-08-07T01:38:05;12.20;;;5.15;;
51578;SDS011;47998;53.242;6.386;2023-08-07T01:40:32;9.10;;;4.35;;
51578;SDS011;47998;53.242;6.386;2023-08-07T01:42:59;8.57;;;4.50;;
51578;SDS011;47998;53.242;6.386;2023-08-07T01:45:26;8.48;;;4.32;;
51578;SDS011;47998;53.242;6.386;2023-08-07T01:47:53;5.82;;;3.80;;
51578;SDS011;47998;53.242;6.386;2023-08-07T01:50:19;9.90;;;3.97;;
51578;SDS011;47998;53.242;6.386;2023-08-07T01:52:45;10.85;;;3.35;;
51578;SDS011;47998;53.242;6.386;2023-08-07T01:55:16;10.02;;;3.38;;
51578;SDS011;47998;53.242;6.386;2023-08-07T01:57:43;8.15;;;3.42;;
51578;SDS011;47998;53.242;6.386;2023-08-07T02:00:09;10.50;;;3.28;;
51578;SDS011;47998;53.242;6.386;2023-08-07T02:02:36;8.85;;;3.00;;
51578;SDS011;47998;53.242;6.386;2023-08-07T02:05:02;15.70;;;3.75;;
51578;SDS011;47998;53.242;6.386;2023-08-07T02:07:29;9.88;;;2.90;;
51578;SDS011;47998;53.242;6.386;2023-08-07T02:09:55;11.45;;;3.55;;
51578;SDS011;47998;53.242;6.386;2023-08-07T02:12:22;9.82;;;3.30;;
51578;SDS011;47998;53.242;6.386;2023-08-07T02:14:48;21.52;;;4.07;;
51578;SDS011;47998;53.242;6.386;2023-08-07T02:17:13;9.63;;;2.95;;
51578;SDS011;47998;53.242;6.386;2023-08-07T02:19:39;11.77;;;2.88;;
51578;SDS011;47998;53.242;6.386;2023-08-07T02:22:05;13.85;;;3.25;;
51578;SDS011;47998;53.242;6.386;2023-08-07T02:24:31;12.63;;;3.00;;
51578;SDS011;47998;53.242;6.386;2023-08-07T02:26:56;10.00;;;2.78;;
51578;SDS011;47998;53.242;6.386;2023-08-07T02:29:22;12.82;;;3.45;;
51578;SDS011;47998;53.242;6.386;2023-08-07T02:31:48;10.88;;;3.45;;
51578;SDS011;47998;53.242;6.386;2023-08-07T02:34:14;13.85;;;3.33;;
51578;SDS011;47998;53.242;6.386;2023-08-07T02:36:39;17.05;;;4.70;;
51578;SDS011;47998;53.242;6.386;2023-08-07T02:39:06;21.02;;;6.20;;
51578;SDS011;47998;53.242;6.386;2023-08-07T02:41:32;20.63;;;5.70;;
51578;SDS011;47998;53.242;6.386;2023-08-07T02:43:57;14.48;;;4.93;;
51578;SDS011;47998;53.242;6.386;2023-08-07T02:46:23;13.40;;;5.88;;
51578;SDS011;47998;53.242;6.386;2023-08-07T02:48:49;13.63;;;4.72;;
51578;SDS011;47998;53.242;6.386;2023-08-07T02:51:15;11.93;;;4.00;;
51578;SDS011;47998;53.242;6.386;2023-08-07T02:53:40;12.60;;;4.50;;
51578;SDS011;47998;53.242;6.386;2023-08-07T02:56:06;11.88;;;4.05;;
51578;SDS011;47998;53.242;6.386;2023-08-07T02:58:32;10.68;;;4.63;;
51578;SDS011;47998;53.242;6.386;2023-08-07T03:01:02;14.85;;;4.45;;
51578;SDS011;47998;53.242;6.386;2023-08-07T03:03:30;6.80;;;3.50;;
51578;SDS011;47998;53.242;6.386;2023-08-07T03:05:55;8.57;;;3.28;;
51578;SDS011;47998;53.242;6.386;2023-08-07T03:08:21;8.65;;;3.38;;
51578;SDS011;47998;53.242;6.386;2023-08-07T03:10:53;7.35;;;2.78;;
51578;SDS011;47998;53.242;6.386;2023-08-07T03:13:21;9.00;;;2.40;;
51578;SDS011;47998;53.242;6.386;2023-08-07T03:15:47;11.02;;;2.17;;
51578;SDS011;47998;53.242;6.386;2023-08-07T03:18:15;12.00;;;2.95;;
51578;SDS011;47998;53.242;6.386;2023-08-07T03:20:44;12.80;;;2.95;;
51578;SDS011;47998;53.242;6.386;2023-08-07T03:23:10;15.30;;;2.88;;
51578;SDS011;47998;53.242;6.386;2023-08-07T03:25:36;11.73;;;2.60;;
51578;SDS011;47998;53.242;6.386;2023-08-07T03:28:02;8.73;;;2.50;;
51578;SDS011;47998;53.242;6.386;2023-08-07T03:30:28;7.65;;;2.20;;
51578;SDS011;47998;53.242;6.386;2023-08-07T03:32:54;13.45;;;2.78;;
51578;SDS011;47998;53.242;6.386;2023-08-07T03:35:19;11.55;;;3.25;;
51578;SDS011;47998;53.242;6.386;2023-08-07T03:37:45;12.70;;;3.25;;
51578;SDS011;47998;53.242;6.386;2023-08-07T03:40:11;16.85;;;3.70;;
51578;SDS011;47998;53.242;6.386;2023-08-07T03:42:37;16.08;;;4.38;;
51578;SDS011;47998;53.242;6.386;2023-08-07T03:45:02;13.02;;;4.50;;
51578;SDS011;47998;53.242;6.386;2023-08-07T03:47:28;17.58;;;5.13;;
51578;SDS011;47998;53.242;6.386;2023-08-07T03:49:54;17.30;;;4.78;;
51578;SDS011;47998;53.242;6.386;2023-08-07T03:52:20;20.70;;;4.57;;
51578;SDS011;47998;53.242;6.386;2023-08-07T03:54:45;18.00;;;4.38;;
51578;SDS011;47998;53.242;6.386;2023-08-07T03:57:11;20.05;;;3.78;;
51578;SDS011;47998;53.242;6.386;2023-08-07T03:59:37;18.98;;;4.03;;
51578;SDS011;47998;53.242;6.386;2023-08-07T04:02:03;16.70;;;4.43;;
51578;SDS011;47998;53.242;6.386;2023-08-07T04:04:28;22.23;;;4.50;;
51578;SDS011;47998;53.242;6.386;2023-08-07T04:06:54;29.55;;;5.20;;
51578;SDS011;47998;53.242;6.386;2023-08-07T04:09:20;16.52;;;3.88;;
51578;SDS011;47998;53.242;6.386;2023-08-07T04:11:45;15.13;;;3.78;;
51578;SDS011;47998;53.242;6.386;2023-08-07T04:14:11;17.60;;;4.38;;
51578;SDS011;47998;53.242;6.386;2023-08-07T04:16:37;16.73;;;4.07;;
51578;SDS011;47998;53.242;6.386;2023-08-07T04:19:03;18.00;;;3.55;;
51578;SDS011;47998;53.242;6.386;2023-08-07T04:21:31;20.05;;;3.63;;
51578;SDS011;47998;53.242;6.386;2023-08-07T04:23:57;15.60;;;3.28;;
51578;SDS011;47998;53.242;6.386;2023-08-07T04:26:25;17.23;;;3.97;;
51578;SDS011;47998;53.242;6.386;2023-08-07T04:28:51;16.05;;;3.75;;
51578;SDS011;47998;53.242;6.386;2023-08-07T04:31:17;17.02;;;4.22;;
51578;SDS011;47998;53.242;6.386;2023-08-07T04:33:42;14.65;;;3.78;;
51578;SDS011;47998;53.242;6.386;2023-08-07T04:36:08;11.07;;;2.97;;
51578;SDS011;47998;53.242;6.386;2023-08-07T04:38:34;11.15;;;3.67;;
51578;SDS011;47998;53.242;6.386;2023-08-07T04:40:59;19.35;;;3.90;;
51578;SDS011;47998;53.242;6.386;2023-08-07T04:43:25;15.85;;;3.88;;
51578;SDS011;47998;53.242;6.386;2023-08-07T04:45:53;17.15;;;5.00;;
51578;SDS011;47998;53.242;6.386;2023-08-07T04:48:18;15.93;;;4.45;;
51578;SDS011;47998;53.242;6.386;2023-08-07T04:50:46;19.58;;;4.43;;
51578;SDS011;47998;53.242;6.386;2023-08-07T04:53:12;18.52;;;5.22;;
51578;SDS011;47998;53.242;6.386;2023-08-07T04:55:38;18.05;;;4.18;;
51578;SDS011;47998;53.242;6.386;2023-08-07T04:58:04;16.00;;;3.90;;
51578;SDS011;47998;53.242;6.386;2023-08-07T05:00:29;16.63;;;3.95;;
51578;SDS011;47998;53.242;6.386;2023-08-07T05:02:55;18.48;;;4.47;;
51578;SDS011;47998;53.242;6.386;2023-08-07T05:05:21;19.27;;;3.78;;
51578;SDS011;47998;53.242;6.386;2023-08-07T05:07:47;12.60;;;3.85;;
51578;SDS011;47998;53.242;6.386;2023-08-07T05:10:13;16.70;;;3.65;;
51578;SDS011;47998;53.242;6.386;2023-08-07T05:12:39;23.10;;;4.78;;
51578;SDS011;47998;53.242;6.386;2023-08-07T05:15:04;16.20;;;3.50;;
51578;SDS011;47998;53.242;6.386;2023-08-07T05:17:31;18.23;;;4.45;;
51578;SDS011;47998;53.242;6.386;2023-08-07T05:19:57;25.35;;;5.53;;
51578;SDS011;47998;53.242;6.386;2023-08-07T05:22:23;29.42;;;5.95;;
51578;SDS011;47998;53.242;6.386;2023-08-07T05:24:49;15.95;;;4.32;;
51578;SDS011;47998;53.242;6.386;2023-08-07T05:27:15;12.70;;;4.25;;
51578;SDS011;47998;53.242;6.386;2023-08-07T05:29:41;16.60;;;4.53;;
51578;SDS011;47998;53.242;6.386;2023-08-07T05:32:10;11.30;;;2.80;;
51578;SDS011;47998;53.242;6.386;2023-08-07T05:34:37;13.85;;;3.33;;
51578;SDS011;47998;53.242;6.386;2023-08-07T05:37:03;11.88;;;3.35;;
51578;SDS011;47998;53.242;6.386;2023-08-07T05:39:29;10.18;;;3.30;;
51578;SDS011;47998;53.242;6.386;2023-08-07T05:41:55;8.75;;;2.13;;
51578;SDS011;47998;53.242;6.386;2023-08-07T05:44:23;8.25;;;2.67;;
51578;SDS011;47998;53.242;6.386;2023-08-07T05:46:49;10.25;;;2.80;;
51578;SDS011;47998;53.242;6.386;2023-08-07T05:49:15;11.95;;;2.80;;
51578;SDS011;47998;53.242;6.386;2023-08-07T05:51:41;12.95;;;3.15;;
51578;SDS011;47998;53.242;6.386;2023-08-07T05:54:07;16.90;;;3.42;;
51578;SDS011;47998;53.242;6.386;2023-08-07T05:56:33;17.85;;;3.83;;
51578;SDS011;47998;53.242;6.386;2023-08-07T05:58:58;12.85;;;2.88;;
51578;SDS011;47998;53.242;6.386;2023-08-07T06:01:24;9.73;;;2.58;;
51578;SDS011;47998;53.242;6.386;2023-08-07T06:03:56;12.40;;;3.10;;
51578;SDS011;47998;53.242;6.386;2023-08-07T06:06:22;12.43;;;3.08;;
51578;SDS011;47998;53.242;6.386;2023-08-07T06:08:48;10.82;;;2.65;;
51578;SDS011;47998;53.242;6.386;2023-08-07T06:11:14;9.43;;;2.60;;
51578;SDS011;47998;53.242;6.386;2023-08-07T06:13:40;16.23;;;3.90;;
51578;SDS011;47998;53.242;6.386;2023-08-07T06:16:06;9.10;;;3.35;;
51578;SDS011;47998;53.242;6.386;2023-08-07T06:18:32;9.85;;;2.08;;
51578;SDS011;47998;53.242;6.386;2023-08-07T06:20:57;6.93;;;1.80;;
51578;SDS011;47998;53.242;6.386;2023-08-07T06:23:23;11.02;;;2.80;;
51578;SDS011;47998;53.242;6.386;2023-08-07T06:25:49;13.52;;;2.53;;
51578;SDS011;47998;53.242;6.386;2023-08-07T06:28:15;12.10;;;2.50;;
51578;SDS011;47998;53.242;6.386;2023-08-07T06:30:41;11.27;;;2.33;;
51578;SDS011;47998;53.242;6.386;2023-08-07T06:33:06;11.82;;;2.78;;
51578;SDS011;47998;53.242;6.386;2023-08-07T06:35:37;9.55;;;2.40;;
51578;SDS011;47998;53.242;6.386;2023-08-07T06:38:03;13.52;;;2.72;;
51578;SDS011;47998;53.242;6.386;2023-08-07T06:40:29;11.73;;;2.75;;
51578;SDS011;47998;53.242;6.386;2023-08-07T06:42:55;10.07;;;2.30;;
51578;SDS011;47998;53.242;6.386;2023-08-07T06:45:21;16.30;;;3.42;;
51578;SDS011;47998;53.242;6.386;2023-08-07T06:47:46;13.00;;;3.28;;
51578;SDS011;47998;53.242;6.386;2023-08-07T06:50:13;9.88;;;2.75;;
51578;SDS011;47998;53.242;6.386;2023-08-07T06:52:39;18.13;;;2.67;;
51578;SDS011;47998;53.242;6.386;2023-08-07T06:55:05;12.32;;;2.45;;
51578;SDS011;47998;53.242;6.386;2023-08-07T06:57:31;17.00;;;3.22;;
51578;SDS011;47998;53.242;6.386;2023-08-07T06:59:57;10.85;;;2.55;;
51578;SDS011;47998;53.242;6.386;2023-08-07T07:02:23;12.90;;;2.50;;
51578;SDS011;47998;53.242;6.386;2023-08-07T07:04:49;6.63;;;1.95;;
51578;SDS011;47998;53.242;6.386;2023-08-07T07:07:14;10.63;;;1.75;;
51578;SDS011;47998;53.242;6.386;2023-08-07T07:09:40;7.30;;;2.50;;
51578;SDS011;47998;53.242;6.386;2023-08-07T07:12:06;7.47;;;1.90;;
51578;SDS011;47998;53.242;6.386;2023-08-07T07:14:32;18.73;;;4.40;;
51578;SDS011;47998;53.242;6.386;2023-08-07T07:17:01;9.60;;;2.97;;
51578;SDS011;47998;53.242;6.386;2023-08-07T07:19:27;14.32;;;2.92;;
51578;SDS011;47998;53.242;6.386;2023-08-07T07:21:52;15.18;;;3.78;;
51578;SDS011;47998;53.242;6.386;2023-08-07T07:24:18;14.88;;;3.20;;
51578;SDS011;47998;53.242;6.386;2023-08-07T07:26:44;17.27;;;3.67;;
51578;SDS011;47998;53.242;6.386;2023-08-07T07:29:10;16.42;;;3.53;;
51578;SDS011;47998;53.242;6.386;2023-08-07T07:31:35;12.20;;;3.10;;
51578;SDS011;47998;53.242;6.386;2023-08-07T07:34:01;9.45;;;2.80;;
51578;SDS011;47998;53.242;6.386;2023-08-07T07:36:28;13.13;;;3.00;;
51578;SDS011;47998;53.242;6.386;2023-08-07T07:38:54;7.55;;;2.40;;
51578;SDS011;47998;53.242;6.386;2023-08-07T07:41:22;10.23;;;2.63;;
51578;SDS011;47998;53.242;6.386;2023-08-07T07:43:48;12.13;;;2.75;;
51578;SDS011;47998;53.242;6.386;2023-08-07T07:46:14;12.65;;;2.13;;
51578;SDS011;47998;53.242;6.386;2023-08-07T07:48:39;7.88;;;2.28;;
51578;SDS011;47998;53.242;6.386;2023-08-07T07:51:05;15.10;;;3.88;;
51578;SDS011;47998;53.242;6.386;2023-08-07T07:53:31;12.60;;;2.80;;
51578;SDS011;47998;53.242;6.386;2023-08-07T07:55:57;9.60;;;2.15;;
51578;SDS011;47998;53.242;6.386;2023-08-07T07:58:23;13.75;;;3.30;;
51578;SDS011;47998;53.242;6.386;2023-08-07T08:00:48;11.32;;;2.90;;
51578;SDS011;47998;53.242;6.386;2023-08-07T08:03:17;12.55;;;3.67;;
51578;SDS011;47998;53.242;6.386;2023-08-07T08:05:43;13.00;;;3.67;;
51578;SDS011;47998;53.242;6.386;2023-08-07T08:08:08;10.13;;;3.05;;
51578;SDS011;47998;53.242;6.386;2023-08-07T08:10:34;10.23;;;3.95;;
51578;SDS011;47998;53.242;6.386;2023-08-07T08:13:00;8.90;;;3.53;;
51578;SDS011;47998;53.242;6.386;2023-08-07T08:15:26;13.85;;;3.67;;
51578;SDS011;47998;53.242;6.386;2023-08-07T08:17:52;16.55;;;4.30;;
51578;SDS011;47998;53.242;6.386;2023-08-07T08:20:18;11.63;;;3.38;;
51578;SDS011;47998;53.242;6.386;2023-08-07T08:22:44;15.73;;;3.92;;
51578;SDS011;47998;53.242;6.386;2023-08-07T08:25:11;7.63;;;2.72;;
51578;SDS011;47998;53.242;6.386;2023-08-07T08:27:39;8.15;;;2.50;;
51578;SDS011;47998;53.242;6.386;2023-08-07T08:30:06;11.85;;;3.30;;
51578;SDS011;47998;53.242;6.386;2023-08-07T08:32:32;10.35;;;2.65;;
51578;SDS011;47998;53.242;6.386;2023-08-07T08:34:58;8.52;;;2.70;;
51578;SDS011;47998;53.242;6.386;2023-08-07T08:37:24;6.35;;;2.03;;
51578;SDS011;47998;53.242;6.386;2023-08-07T08:39:50;10.18;;;1.88;;
51578;SDS011;47998;53.242;6.386;2023-08-07T08:42:16;7.15;;;2.03;;
51578;SDS011;47998;53.242;6.386;2023-08-07T08:44:54;6.22;;;2.45;;
51578;SDS011;47998;53.242;6.386;2023-08-07T08:47:21;15.77;;;2.85;;
51578;SDS011;47998;53.242;6.386;2023-08-07T08:49:51;9.27;;;2.45;;
51578;SDS011;47998;53.242;6.386;2023-08-07T08:52:37;7.65;;;2.08;;
51578;SDS011;47998;53.242;6.386;2023-08-07T08:55:07;8.50;;;2.08;;
51578;SDS011;47998;53.242;6.386;2023-08-07T08:57:34;12.82;;;2.95;;
51578;SDS011;47998;53.242;6.386;2023-08-07T09:00:02;9.55;;;2.20;;
51578;SDS011;47998;53.242;6.386;2023-08-07T09:02:32;11.45;;;2.08;;
51578;SDS011;47998;53.242;6.386;2023-08-07T09:04:59;12.75;;;2.83;;
51578;SDS011;47998;53.242;6.386;2023-08-07T09:07:24;8.23;;;1.80;;
51578;SDS011;47998;53.242;6.386;2023-08-07T09:09:51;6.78;;;1.60;;
51578;SDS011;47998;53.242;6.386;2023-08-07T09:12:23;8.68;;;1.58;;
51578;SDS011;47998;53.242;6.386;2023-08-07T09:14:54;8.95;;;2.20;;
51578;SDS011;47998;53.242;6.386;2023-08-07T09:17:27;5.50;;;1.65;;
51578;SDS011;47998;53.242;6.386;2023-08-07T09:19:54;9.82;;;1.70;;
51578;SDS011;47998;53.242;6.386;2023-08-07T09:22:21;10.80;;;2.97;;
51578;SDS011;47998;53.242;6.386;2023-08-07T09:24:47;10.13;;;1.73;;
51578;SDS011;47998;53.242;6.386;2023-08-07T09:27:13;7.40;;;2.05;;
51578;SDS011;47998;53.242;6.386;2023-08-07T09:29:48;7.05;;;2.10;;
51578;SDS011;47998;53.242;6.386;2023-08-07T09:32:13;6.28;;;2.05;;
51578;SDS011;47998;53.242;6.386;2023-08-07T09:34:40;7.75;;;1.85;;
51578;SDS011;47998;53.242;6.386;2023-08-07T09:37:06;9.75;;;1.88;;
51578;SDS011;47998;53.242;6.386;2023-08-07T09:39:33;7.90;;;1.85;;
51578;SDS011;47998;53.242;6.386;2023-08-07T09:42:01;7.00;;;2.00;;
51578;SDS011;47998;53.242;6.386;2023-08-07T09:44:34;9.63;;;2.67;;
51578;SDS011;47998;53.242;6.386;2023-08-07T09:47:02;7.15;;;1.67;;
51578;SDS011;47998;53.242;6.386;2023-08-07T09:49:40;6.63;;;1.85;;
51578;SDS011;47998;53.242;6.386;2023-08-07T09:52:07;10.38;;;2.35;;
51578;SDS011;47998;53.242;6.386;2023-08-07T09:54:34;10.00;;;1.80;;
51578;SDS011;47998;53.242;6.386;2023-08-07T09:57:03;9.85;;;2.30;;
51578;SDS011;47998;53.242;6.386;2023-08-07T09:59:31;8.85;;;2.38;;
51578;SDS011;47998;53.242;6.386;2023-08-07T10:01:57;9.30;;;1.83;;
51578;SDS011;47998;53.242;6.386;2023-08-07T10:04:30;10.90;;;2.67;;
51578;SDS011;47998;53.242;6.386;2023-08-07T10:06:56;7.95;;;2.10;;
51578;SDS011;47998;53.242;6.386;2023-08-07T10:09:23;11.27;;;2.40;;
51578;SDS011;47998;53.242;6.386;2023-08-07T10:11:49;13.73;;;2.42;;
51578;SDS011;47998;53.242;6.386;2023-08-07T10:14:16;10.32;;;2.35;;
51578;SDS011;47998;53.242;6.386;2023-08-07T10:16:41;23.75;;;2.05;;
51578;SDS011;47998;53.242;6.386;2023-08-07T10:19:08;12.90;;;3.47;;
51578;SDS011;47998;53.242;6.386;2023-08-07T10:21:35;11.00;;;2.97;;
51578;SDS011;47998;53.242;6.386;2023-08-07T10:24:03;5.47;;;1.80;;
51578;SDS011;47998;53.242;6.386;2023-08-07T10:26:29;7.95;;;2.33;;
51578;SDS011;47998;53.242;6.386;2023-08-07T10:29:00;9.95;;;2.55;;
51578;SDS011;47998;53.242;6.386;2023-08-07T10:31:27;12.27;;;2.95;;
51578;SDS011;47998;53.242;6.386;2023-08-07T10:33:55;12.75;;;2.78;;
51578;SDS011;47998;53.242;6.386;2023-08-07T10:36:20;9.57;;;2.33;;
51578;SDS011;47998;53.242;6.386;2023-08-07T10:38:49;6.70;;;1.80;;
51578;SDS011;47998;53.242;6.386;2023-08-07T10:41:18;4.80;;;1.50;;
51578;SDS011;47998;53.242;6.386;2023-08-07T10:43:45;7.47;;;1.75;;
51578;SDS011;47998;53.242;6.386;2023-08-07T10:46:17;5.35;;;1.23;;
51578;SDS011;47998;53.242;6.386;2023-08-07T10:51:16;5.82;;;1.40;;
51578;SDS011;47998;53.242;6.386;2023-08-07T10:53:43;6.47;;;1.98;;
51578;SDS011;47998;53.242;6.386;2023-08-07T10:56:14;7.65;;;1.70;;
51578;SDS011;47998;53.242;6.386;2023-08-07T10:58:40;6.82;;;1.38;;
51578;SDS011;47998;53.242;6.386;2023-08-07T11:03:53;9.68;;;1.98;;
51578;SDS011;47998;53.242;6.386;2023-08-07T11:06:27;8.77;;;1.73;;
51578;SDS011;47998;53.242;6.386;2023-08-07T11:09:00;7.72;;;1.73;;
51578;SDS011;47998;53.242;6.386;2023-08-07T11:11:28;11.45;;;2.90;;
51578;SDS011;47998;53.242;6.386;2023-08-07T11:13:55;7.93;;;1.88;;
51578;SDS011;47998;53.242;6.386;2023-08-07T11:16:21;8.30;;;2.05;;
51578;SDS011;47998;53.242;6.386;2023-08-07T11:18:47;7.30;;;2.20;;
51578;SDS011;47998;53.242;6.386;2023-08-07T11:21:14;3.75;;;1.55;;
51578;SDS011;47998;53.242;6.386;2023-08-07T11:23:40;11.07;;;1.98;;
51578;SDS011;47998;53.242;6.386;2023-08-07T11:26:07;9.13;;;2.70;;
51578;SDS011;47998;53.242;6.386;2023-08-07T11:28:34;3.47;;;1.20;;
51578;SDS011;47998;53.242;6.386;2023-08-07T11:31:00;9.30;;;2.38;;
51578;SDS011;47998;53.242;6.386;2023-08-07T11:33:26;6.45;;;1.85;;
51578;SDS011;47998;53.242;6.386;2023-08-07T11:35:53;6.53;;;1.95;;
51578;SDS011;47998;53.242;6.386;2023-08-07T11:38:30;6.28;;;1.90;;
51578;SDS011;47998;53.242;6.386;2023-08-07T11:40:59;6.35;;;2.15;;
51578;SDS011;47998;53.242;6.386;2023-08-07T11:43:30;3.78;;;1.48;;
51578;SDS011;47998;53.242;6.386;2023-08-07T11:45:57;5.05;;;1.90;;
51578;SDS011;47998;53.242;6.386;2023-08-07T11:48:25;7.72;;;1.70;;
51578;SDS011;47998;53.242;6.386;2023-08-07T11:50:54;8.73;;;2.38;;
51578;SDS011;47998;53.242;6.386;2023-08-07T11:53:22;9.98;;;2.00;;
51578;SDS011;47998;53.242;6.386;2023-08-07T11:55:56;7.82;;;2.53;;
51578;SDS011;47998;53.242;6.386;2023-08-07T11:58:27;11.18;;;2.70;;
51578;SDS011;47998;53.242;6.386;2023-08-07T12:00:58;7.15;;;2.60;;
51578;SDS011;47998;53.242;6.386;2023-08-07T12:03:24;6.47;;;2.05;;
51578;SDS011;47998;53.242;6.386;2023-08-07T12:05:55;4.10;;;1.40;;
51578;SDS011;47998;53.242;6.386;2023-08-07T12:08:21;7.65;;;1.80;;
51578;SDS011;47998;53.242;6.386;2023-08-07T12:10:53;7.25;;;1.98;;
51578;SDS011;47998;53.242;6.386;2023-08-07T12:13:20;8.27;;;2.70;;
51578;SDS011;47998;53.242;6.386;2023-08-07T12:15:51;5.80;;;1.92;;
51578;SDS011;47998;53.242;6.386;2023-08-07T12:18:22;11.77;;;2.65;;
51578;SDS011;47998;53.242;6.386;2023-08-07T12:20:49;6.22;;;1.83;;
51578;SDS011;47998;53.242;6.386;2023-08-07T12:23:16;7.25;;;2.03;;
51578;SDS011;47998;53.242;6.386;2023-08-07T12:25:43;5.43;;;1.67;;
51578;SDS011;47998;53.242;6.386;2023-08-07T12:28:10;4.88;;;1.42;;
51578;SDS011;47998;53.242;6.386;2023-08-07T12:30:36;9.35;;;2.15;;
51578;SDS011;47998;53.242;6.386;2023-08-07T12:33:02;7.28;;;1.77;;
51578;SDS011;47998;53.242;6.386;2023-08-07T12:35:33;5.15;;;1.75;;
51578;SDS011;47998;53.242;6.386;2023-08-07T12:37:59;4.95;;;1.25;;
51578;SDS011;47998;53.242;6.386;2023-08-07T12:40:27;5.63;;;1.77;;
51578;SDS011;47998;53.242;6.386;2023-08-07T12:42:52;6.25;;;2.00;;
51578;SDS011;47998;53.242;6.386;2023-08-07T12:45:18;9.88;;;2.67;;
51578;SDS011;47998;53.242;6.386;2023-08-07T12:47:44;2.67;;;1.40;;
51578;SDS011;47998;53.242;6.386;2023-08-07T12:50:11;6.75;;;2.08;;
51578;SDS011;47998;53.242;6.386;2023-08-07T12:52:37;7.88;;;1.92;;
51578;SDS011;47998;53.242;6.386;2023-08-07T12:55:03;8.75;;;2.90;;
51578;SDS011;47998;53.242;6.386;2023-08-07T12:57:30;14.10;;;2.80;;
51578;SDS011;47998;53.242;6.386;2023-08-07T12:59:57;10.13;;;2.85;;
51578;SDS011;47998;53.242;6.386;2023-08-07T13:02:22;8.40;;;1.98;;
51578;SDS011;47998;53.242;6.386;2023-08-07T13:04:48;5.68;;;1.73;;
51578;SDS011;47998;53.242;6.386;2023-08-07T13:07:14;5.90;;;2.22;;
51578;SDS011;47998;53.242;6.386;2023-08-07T13:09:40;10.85;;;2.95;;
51578;SDS011;47998;53.242;6.386;2023-08-07T13:12:05;4.53;;;1.40;;
51578;SDS011;47998;53.242;6.386;2023-08-07T13:14:31;9.65;;;1.83;;
51578;SDS011;47998;53.242;6.386;2023-08-07T13:16:57;3.97;;;1.33;;
51578;SDS011;47998;53.242;6.386;2023-08-07T13:19:23;6.63;;;1.80;;
51578;SDS011;47998;53.242;6.386;2023-08-07T13:21:49;10.60;;;2.58;;
51578;SDS011;47998;53.242;6.386;2023-08-07T13:24:15;10.00;;;2.35;;
51578;SDS011;47998;53.242;6.386;2023-08-07T13:26:41;7.93;;;1.80;;
51578;SDS011;47998;53.242;6.386;2023-08-07T13:29:13;4.72;;;1.35;;
51578;SDS011;47998;53.242;6.386;2023-08-07T13:31:39;6.68;;;1.92;;
51578;SDS011;47998;53.242;6.386;2023-08-07T13:34:11;3.55;;;1.50;;
51578;SDS011;47998;53.242;6.386;2023-08-07T13:36:37;7.63;;;1.90;;
51578;SDS011;47998;53.242;6.386;2023-08-07T13:39:03;10.10;;;2.25;;
51578;SDS011;47998;53.242;6.386;2023-08-07T13:41:30;10.40;;;2.47;;
51578;SDS011;47998;53.242;6.386;2023-08-07T13:43:56;5.50;;;1.67;;
51578;SDS011;47998;53.242;6.386;2023-08-07T13:46:21;4.50;;;2.28;;
51578;SDS011;47998;53.242;6.386;2023-08-07T13:48:47;8.38;;;2.72;;
51578;SDS011;47998;53.242;6.386;2023-08-07T13:51:13;5.72;;;1.70;;
51578;SDS011;47998;53.242;6.386;2023-08-07T13:53:39;7.70;;;2.20;;
51578;SDS011;47998;53.242;6.386;2023-08-07T13:56:06;7.25;;;2.05;;
51578;SDS011;47998;53.242;6.386;2023-08-07T13:58:34;12.00;;;1.42;;
51578;SDS011;47998;53.242;6.386;2023-08-07T14:01:00;8.02;;;2.28;;
51578;SDS011;47998;53.242;6.386;2023-08-07T14:03:25;8.18;;;2.42;;
51578;SDS011;47998;53.242;6.386;2023-08-07T14:05:51;8.98;;;2.70;;
51578;SDS011;47998;53.242;6.386;2023-08-07T14:08:17;10.73;;;2.28;;
51578;SDS011;47998;53.242;6.386;2023-08-07T14:10:43;9.23;;;2.03;;
51578;SDS011;47998;53.242;6.386;2023-08-07T14:13:09;8.98;;;2.03;;
51578;SDS011;47998;53.242;6.386;2023-08-07T14:15:36;6.07;;;2.55;;
51578;SDS011;47998;53.242;6.386;2023-08-07T14:18:02;4.90;;;1.65;;
51578;SDS011;47998;53.242;6.386;2023-08-07T14:20:28;5.43;;;1.58;;
51578;SDS011;47998;53.242;6.386;2023-08-07T14:22:54;8.18;;;2.13;;
51578;SDS011;47998;53.242;6.386;2023-08-07T14:25:19;7.07;;;1.90;;
51578;SDS011;47998;53.242;6.386;2023-08-07T14:27:48;5.72;;;1.70;;
51578;SDS011;47998;53.242;6.386;2023-08-07T14:30:15;5.82;;;1.30;;
51578;SDS011;47998;53.242;6.386;2023-08-07T14:32:40;8.52;;;3.35;;
51578;SDS011;47998;53.242;6.386;2023-08-07T14:35:07;4.10;;;1.20;;
51578;SDS011;47998;53.242;6.386;2023-08-07T14:37:33;3.47;;;1.20;;
51578;SDS011;47998;53.242;6.386;2023-08-07T14:39:59;6.90;;;1.67;;
51578;SDS011;47998;53.242;6.386;2023-08-07T14:42:26;4.85;;;1.83;;
51578;SDS011;47998;53.242;6.386;2023-08-07T14:44:52;3.28;;;1.42;;
51578;SDS011;47998;53.242;6.386;2023-08-07T14:47:18;7.85;;;2.17;;
51578;SDS011;47998;53.242;6.386;2023-08-07T14:49:44;7.32;;;2.00;;